Time;durP1;ratioP1;P1;durP2;ratioP2;P2;SDS_P1;SDS_P2;PMS_P1;PMS_P2;Temp;Humidity;BMP_temperature;BMP_pressure;BME280_temperature;BME280_humidity;BME280_pressure;Samples;Min_cycle;Max_cycle;Signal;HPM_P1;HPM_P2
2023/10/26 00:01:12;;;;;;;14.48;12.68;;;10.80;99.90;;;;;;5098126;28;20528;-80
2023/10/26 00:03:38;;;;;;;19.67;13.48;;;9.80;99.90;;;;;;5101129;27;20483;-80
2023/10/26 00:06:03;;;;;;;16.60;13.48;;;10.80;99.90;;;;;;5102425;27;20039;-81
2023/10/26 00:08:29;;;;;;;18.65;14.75;;;9.80;99.90;;;;;;5100433;27;20046;-82
2023/10/26 00:10:55;;;;;;;24.65;14.40;;;10.40;99.90;;;;;;5098431;28;20071;-78
2023/10/26 00:13:21;;;;;;;17.92;13.63;;;11.60;99.90;;;;;;5098978;28;20044;-80
2023/10/26 00:15:47;;;;;;;16.02;13.13;;;9.80;99.90;;;;;;5100617;28;20134;-79
2023/10/26 00:18:14;;;;;;;15.77;12.90;;;11.50;99.90;;;;;;5102674;28;20036;-80
2023/10/26 00:20:40;;;;;;;16.20;12.18;;;11.00;99.90;;;;;;5099261;28;20087;-78
2023/10/26 00:23:07;;;;;;;15.20;11.82;;;11.20;99.90;;;;;;5098200;28;20138;-79
2023/10/26 00:25:32;;;;;;;18.90;13.07;;;9.80;99.90;;;;;;5099947;28;20043;-81
2023/10/26 00:27:58;;;;;;;20.20;12.43;;;10.90;99.90;;;;;;5119214;28;20406;-79
2023/10/26 00:30:24;;;;;;;17.98;11.93;;;12.00;99.90;;;;;;5100939;28;20091;-78
2023/10/26 00:32:50;;;;;;;15.13;12.88;;;9.80;99.90;;;;;;5098504;28;20360;-81
2023/10/26 00:35:16;;;;;;;15.98;12.35;;;9.70;99.90;;;;;;5098678;28;20446;-81
2023/10/26 00:37:42;;;;;;;14.93;12.95;;;9.80;99.90;;;;;;5100701;28;20050;-80
2023/10/26 00:40:08;;;;;;;16.20;12.82;;;10.10;99.90;;;;;;5101882;28;20490;-77
2023/10/26 00:42:33;;;;;;;16.38;13.52;;;9.80;99.90;;;;;;5100058;28;20047;-78
2023/10/26 00:44:59;;;;;;;14.27;12.68;;;9.80;99.90;;;;;;5097373;28;20040;-77
2023/10/26 00:47:25;;;;;;;19.17;13.68;;;10.90;99.90;;;;;;5099138;28;20051;-80
2023/10/26 00:49:52;;;;;;;15.20;13.60;;;11.70;99.90;;;;;;5101615;28;20043;-80
2023/10/26 00:52:18;;;;;;;14.10;12.63;;;11.50;99.90;;;;;;5101789;28;20108;-79
2023/10/26 00:54:44;;;;;;;14.93;13.20;;;11.90;99.90;;;;;;5098593;28;20135;-78
2023/10/26 00:57:11;;;;;;;19.63;15.20;;;11.70;99.90;;;;;;5097633;28;20469;-78
2023/10/26 00:59:39;;;;;;;16.02;13.60;;;9.70;99.90;;;;;;5100299;28;20374;-78
2023/10/26 01:02:08;;;;;;;15.68;13.57;;;11.70;99.90;;;;;;5101763;28;20118;-78
2023/10/26 01:04:33;;;;;;;15.35;13.55;;;9.70;99.90;;;;;;5099147;28;20050;-78
2023/10/26 01:06:59;;;;;;;22.35;16.27;;;9.70;99.90;;;;;;5098307;28;20028;-78
2023/10/26 01:09:25;;;;;;;28.45;14.90;;;11.20;99.90;;;;;;5102648;27;20055;-80
2023/10/26 01:11:51;;;;;;;17.13;13.70;;;9.70;99.90;;;;;;5104765;27;20049;-78
2023/10/26 01:14:16;;;;;;;17.13;15.27;;;9.60;99.90;;;;;;5105405;27;20128;-81
2023/10/26 01:16:42;;;;;;;24.35;15.20;;;10.10;99.90;;;;;;5119557;27;20118;-80
2023/10/26 01:19:09;;;;;;;16.67;14.90;;;11.20;99.90;;;;;;5118623;27;20376;-80
2023/10/26 01:21:48;;;;;;;16.38;14.63;;;11.00;99.90;;;;;;5103502;27;20499;-77
2023/10/26 01:24:14;;;;;;;19.48;15.43;;;11.00;99.90;;;;;;5105476;27;20035;-78
2023/10/26 01:26:40;;;;;;;16.85;15.02;;;11.30;99.90;;;;;;5119131;27;20040;-79
2023/10/26 01:29:06;;;;;;;21.05;16.75;;;11.70;99.90;;;;;;5101575;28;20050;-80
2023/10/26 01:31:32;;;;;;;21.58;16.25;;;10.90;99.90;;;;;;5119750;27;20039;-78
2023/10/26 01:33:58;;;;;;;19.98;15.75;;;11.50;99.90;;;;;;5104367;27;20053;-78
2023/10/26 01:36:23;;;;;;;18.65;16.65;;;9.70;99.90;;;;;;5105249;27;20375;-78
2023/10/26 01:38:49;;;;;;;20.50;16.90;;;11.10;99.90;;;;;;5101332;28;20054;-78
2023/10/26 01:41:14;;;;;;;21.10;15.75;;;11.60;99.90;;;;;;5100767;28;20461;-79
2023/10/26 01:43:40;;;;;;;19.60;17.48;;;9.90;99.90;;;;;;5103454;27;20044;-78
2023/10/26 01:46:06;;;;;;;19.58;16.33;;;9.60;99.90;;;;;;5104639;27;20039;-79
2023/10/26 01:48:31;;;;;;;17.98;15.80;;;9.50;99.90;;;;;;5120484;27;20059;-77
2023/10/26 01:50:57;;;;;;;32.67;19.48;;;10.90;99.90;;;;;;5101185;28;20479;-79
2023/10/26 01:53:23;;;;;;;19.42;16.17;;;9.60;99.90;;;;;;5100886;28;20051;-80
2023/10/26 01:55:49;;;;;;;22.88;17.80;;;10.30;99.90;;;;;;5095848;27;20027;-78
2023/10/26 01:58:15;;;;;;;25.80;17.60;;;9.50;99.90;;;;;;5104899;27;20037;-78
2023/10/26 02:00:41;;;;;;;23.85;19.45;;;10.90;99.90;;;;;;5118530;27;20047;-78
2023/10/26 02:03:07;;;;;;;27.00;20.10;;;11.30;99.90;;;;;;5100800;28;20494;-80
2023/10/26 02:05:33;;;;;;;23.08;19.52;;;10.40;99.90;;;;;;5102259;27;20039;-79
2023/10/26 02:07:59;;;;;;;22.10;19.05;;;9.50;99.90;;;;;;5103772;27;20043;-79
2023/10/26 02:10:29;;;;;;;25.90;21.00;;;9.40;99.90;;;;;;5104876;27;20052;-77
2023/10/26 02:12:55;;;;;;;22.70;19.92;;;10.30;99.90;;;;;;5100562;28;20536;-81
2023/10/26 02:15:21;;;;;;;35.30;24.30;;;9.50;99.90;;;;;;5100007;28;20031;-79
2023/10/26 02:17:47;;;;;;;25.42;20.73;;;10.60;99.90;;;;;;5120678;27;20043;-79
2023/10/26 02:20:13;;;;;;;26.75;23.17;;;9.60;99.90;;;;;;5103400;27;20468;-80
2023/10/26 02:22:38;;;;;;;30.27;21.92;;;9.70;99.90;;;;;;5101249;27;20050;-77
2023/10/26 02:25:04;;;;;;;27.23;22.33;;;11.10;99.90;;;;;;5100723;28;20035;-79
2023/10/26 02:27:31;;;;;;;31.35;24.45;;;9.50;99.90;;;;;;5102035;27;20043;-80
2023/10/26 02:29:57;;;;;;;27.00;22.52;;;9.50;99.90;;;;;;5102899;27;20480;-79
2023/10/26 02:32:23;;;;;;;39.47;24.70;;;9.60;99.90;;;;;;5104287;27;20458;-79
2023/10/26 02:34:49;;;;;;;31.50;24.38;;;8.20;99.90;;;;;;5100243;28;20047;-79
2023/10/26 02:37:17;;;;;;;26.83;22.58;;;9.50;99.90;;;;;;5083421;28;20494;-79
2023/10/26 02:39:43;;;;;;;29.45;24.40;;;9.50;99.90;;;;;;5121886;27;20044;-82
2023/10/26 02:42:09;;;;;;;30.77;23.45;;;11.50;99.90;;;;;;5107132;27;20042;-79
2023/10/26 02:44:35;;;;;;;34.97;24.88;;;10.80;99.90;;;;;;5104825;27;20497;-77
2023/10/26 02:47:01;;;;;;;35.78;24.13;;;11.30;99.90;;;;;;5103389;27;20123;-80
2023/10/26 02:49:28;;;;;;;34.00;22.85;;;11.30;99.90;;;;;;5103552;27;20466;-81
2023/10/26 02:51:53;;;;;;;32.05;24.33;;;9.40;99.90;;;;;;5107088;27;20366;-81
2023/10/26 02:54:19;;;;;;;30.77;22.55;;;9.50;99.90;;;;;;5107072;27;20474;-80
2023/10/26 02:56:45;;;;;;;28.75;23.52;;;9.40;99.90;;;;;;5103547;27;20077;-80
2023/10/26 02:59:11;;;;;;;28.38;23.40;;;9.20;99.90;;;;;;5105300;27;20075;-78
2023/10/26 03:01:36;;;;;;;37.17;24.77;;;9.50;99.90;;;;;;5105869;27;20064;-79
2023/10/26 03:04:03;;;;;;;30.35;24.25;;;9.50;99.90;;;;;;5106058;27;20455;-81
2023/10/26 03:06:29;;;;;;;37.85;26.02;;;9.50;99.90;;;;;;5106437;27;20134;-81
2023/10/26 03:08:54;;;;;;;29.77;24.90;;;11.20;99.90;;;;;;5102917;27;20039;-80
2023/10/26 03:11:20;;;;;;;30.92;26.42;;;10.70;99.90;;;;;;5103052;27;20038;-81
2023/10/26 03:13:46;;;;;;;36.58;25.55;;;;;;;;;;5105597;27;20042;-78
2023/10/26 03:16:12;;;;;;;34.20;27.52;;;9.50;99.90;;;;;;5107017;27;20513;-81
2023/10/26 03:18:37;;;;;;;31.17;26.23;;;9.50;99.90;;;;;;5104241;27;20046;-79
2023/10/26 03:21:04;;;;;;;36.45;26.40;;;9.50;99.90;;;;;;5102746;27;20050;-78
2023/10/26 03:23:30;;;;;;;36.65;28.25;;;9.50;99.90;;;;;;5103776;27;20077;-78
2023/10/26 03:25:55;;;;;;;32.10;26.73;;;9.50;99.90;;;;;;5105627;27;20066;-81
2023/10/26 03:28:21;;;;;;;31.23;27.00;;;9.50;99.90;;;;;;5106862;27;20167;-80
2023/10/26 03:30:47;;;;;;;36.92;27.67;;;11.30;99.90;;;;;;5102714;27;20070;-80
2023/10/26 03:33:13;;;;;;;33.80;26.80;;;10.00;99.90;;;;;;5102632;27;20168;-81
2023/10/26 03:35:38;;;;;;;34.05;26.65;;;10.80;99.90;;;;;;5104291;27;20039;-81
2023/10/26 03:38:04;;;;;;;34.22;27.15;;;10.80;99.90;;;;;;5106144;27;20042;-79
2023/10/26 03:40:30;;;;;;;35.97;28.85;;;10.50;99.90;;;;;;5105175;27;20047;-78
2023/10/26 03:42:55;;;;;;;39.63;28.65;;;10.40;99.90;;;;;;5102479;27;20035;-78
2023/10/26 03:45:21;;;;;;;33.70;27.15;;;9.60;99.90;;;;;;5102806;27;20510;-81
2023/10/26 03:47:47;;;;;;;33.22;28.63;;;10.00;99.90;;;;;;5104364;27;20489;-80
2023/10/26 03:50:12;;;;;;;34.30;27.92;;;9.60;99.90;;;;;;5106166;27;20039;-80
2023/10/26 03:52:38;;;;;;;33.35;27.00;;;9.40;99.90;;;;;;5104808;27;20125;-77
2023/10/26 03:55:04;;;;;;;33.78;29.05;;;9.60;99.90;;;;;;5101621;27;20550;-79
2023/10/26 03:57:34;;;;;;;33.65;28.42;;;9.50;99.90;;;;;;5103091;27;20057;-78
2023/10/26 03:59:59;;;;;;;35.35;28.52;;;9.50;99.90;;;;;;5104991;27;20042;-79
2023/10/26 04:02:25;;;;;;;37.03;27.88;;;10.90;99.90;;;;;;5123178;27;20042;-81
2023/10/26 04:04:50;;;;;;;35.13;29.17;;;9.20;99.90;;;;;;5101940;27;20043;-81
2023/10/26 04:07:17;;;;;;;44.78;31.70;;;11.30;99.90;;;;;;5102299;27;20047;-79
2023/10/26 04:09:42;;;;;;;34.97;28.75;;;9.50;99.90;;;;;;5104083;27;20050;-80
2023/10/26 04:12:08;;;;;;;31.70;26.70;;;9.50;99.90;;;;;;5123051;27;20034;-80
2023/10/26 04:14:34;;;;;;;33.55;28.77;;;10.80;99.90;;;;;;5103929;27;20509;-78
2023/10/26 04:17:00;;;;;;;32.55;27.25;;;11.50;99.90;;;;;;5101940;28;20041;-79
2023/10/26 04:19:25;;;;;;;31.05;27.45;;;9.70;99.90;;;;;;5102178;28;20057;-79
2023/10/26 04:21:51;;;;;;;29.67;26.40;;;9.50;99.90;;;;;;5104506;27;20273;-80
2023/10/26 04:24:17;;;;;;;35.25;28.10;;;11.30;99.90;;;;;;5105830;27;20050;-79
2023/10/26 04:26:43;;;;;;;33.50;26.77;;;9.50;99.90;;;;;;5120734;27;20030;-79
2023/10/26 04:29:08;;;;;;;34.50;27.75;;;10.80;99.90;;;;;;5118820;28;20043;-78
2023/10/26 04:31:34;;;;;;;32.35;28.08;;;11.40;99.90;;;;;;5102792;27;20047;-80
2023/10/26 04:34:00;;;;;;;34.15;27.55;;;9.80;99.90;;;;;;5105471;27;20043;-78
2023/10/26 04:36:26;;;;;;;36.40;29.02;;;9.50;99.90;;;;;;5105481;27;20537;-81
2023/10/26 04:38:52;;;;;;;32.22;27.13;;;11.00;99.90;;;;;;5126676;27;20529;-79
2023/10/26 04:41:18;;;;;;;38.08;27.40;;;11.30;99.90;;;;;;5101810;28;20058;-80
2023/10/26 04:43:43;;;;;;;30.80;26.88;;;10.30;99.90;;;;;;5105796;27;20122;-81
2023/10/26 04:46:09;;;;;;;35.50;28.73;;;9.80;99.90;;;;;;5109477;27;20031;-79
2023/10/26 04:48:35;;;;;;;30.30;26.30;;;10.70;99.90;;;;;;5108499;27;20134;-81
2023/10/26 04:51:00;;;;;;;34.00;27.27;;;9.60;99.90;;;;;;5104975;27;20050;-81
2023/10/26 04:53:26;;;;;;;34.65;27.23;;;11.50;99.90;;;;;;5105920;27;20402;-78
2023/10/26 04:55:52;;;;;;;37.08;27.85;;;11.50;99.90;;;;;;5108476;27;20121;-81
2023/10/26 04:58:18;;;;;;;33.90;26.73;;;11.10;99.90;;;;;;5108825;27;20058;-81
2023/10/26 05:00:44;;;;;;;31.88;26.52;;;9.60;99.90;;;;;;5106892;27;20042;-79
2023/10/26 05:03:09;;;;;;;34.33;27.05;;;11.50;99.90;;;;;;5105257;27;20039;-78
2023/10/26 05:05:35;;;;;;;33.03;27.33;;;9.40;99.90;;;;;;5105831;27;20118;-80
2023/10/26 05:08:01;;;;;;;34.67;28.20;;;9.30;99.90;;;;;;5108749;27;20087;-79
2023/10/26 05:10:27;;;;;;;31.33;26.20;;;9.30;99.90;;;;;;5108671;27;20039;-77
2023/10/26 05:12:53;;;;;;;35.28;26.92;;;9.30;99.90;;;;;;5105447;27;20193;-78
2023/10/26 05:15:19;;;;;;;33.67;28.70;;;9.30;99.90;;;;;;5105264;27;20545;-80
2023/10/26 05:17:45;;;;;;;31.38;25.83;;;11.10;99.90;;;;;;5123787;27;20047;-79
2023/10/26 05:20:10;;;;;;;36.88;28.80;;;10.60;99.90;;;;;;5108611;27;20121;-78
2023/10/26 05:22:36;;;;;;;32.05;27.02;;;9.30;99.90;;;;;;5107969;27;20129;-81
2023/10/26 05:25:04;;;;;;;32.65;27.90;;;10.30;99.90;;;;;;5104663;27;20039;-78
2023/10/26 05:27:33;;;;;;;35.95;28.15;;;9.30;99.90;;;;;;5105290;27;20122;-80
2023/10/26 05:29:59;;;;;;;37.40;29.23;;;9.30;99.90;;;;;;5108287;27;20049;-78
2023/10/26 05:32:26;;;;;;;39.08;29.50;;;10.70;99.90;;;;;;5108258;27;20043;-77
2023/10/26 05:34:52;;;;;;;36.58;28.60;;;11.00;99.90;;;;;;5104741;27;20054;-79
2023/10/26 05:37:18;;;;;;;48.90;39.67;;;11.60;99.90;;;;;;5105297;27;20047;-78
2023/10/26 05:39:44;;;;;;;44.95;34.13;;;9.50;99.90;;;;;;5106158;27;20129;-78
2023/10/26 05:42:10;;;;;;;44.25;28.10;;;9.70;99.90;;;;;;5108312;27;20050;-77
2023/10/26 05:44:35;;;;;;;34.10;29.13;;;9.70;99.90;;;;;;5107694;27;20042;-80
2023/10/26 05:47:01;;;;;;;39.10;27.17;;;10.90;99.90;;;;;;5103942;27;20153;-79
2023/10/26 05:49:27;;;;;;;38.58;24.95;;;9.20;99.90;;;;;;5105177;27;20050;-78
2023/10/26 05:51:53;;;;;;;28.70;25.70;;;10.10;99.90;;;;;;5107301;27;20477;-79
2023/10/26 05:54:19;;;;;;;40.50;25.92;;;10.60;99.90;;;;;;5105955;27;20505;-78
2023/10/26 05:56:45;;;;;;;29.63;24.75;;;9.00;99.90;;;;;;5106103;27;20046;-79
2023/10/26 05:59:10;;;;;;;69.43;50.83;;;9.10;99.90;;;;;;5104666;27;20042;-78
2023/10/26 06:01:36;;;;;;;41.47;36.92;;;9.00;99.90;;;;;;5104536;27;20403;-79
2023/10/26 06:04:02;;;;;;;28.00;25.05;;;9.00;99.90;;;;;;5107597;27;20091;-78
2023/10/26 06:06:27;;;;;;;36.58;22.83;;;9.00;99.90;;;;;;5108513;27;20478;-78
2023/10/26 06:08:53;;;;;;;25.00;22.13;;;9.00;99.90;;;;;;5105811;27;20039;-80
2023/10/26 06:11:19;;;;;;;26.40;22.50;;;9.00;99.90;;;;;;5104892;27;20035;-81
2023/10/26 06:13:44;;;;;;;32.28;23.15;;;9.80;99.90;;;;;;5105413;27;20066;-81
2023/10/26 06:16:15;;;;;;;28.17;21.95;;;10.20;99.90;;;;;;5108005;27;20074;-81
2023/10/26 06:18:41;;;;;;;23.95;21.50;;;10.10;99.90;;;;;;5123528;27;20073;-80
2023/10/26 06:21:07;;;;;;;26.00;21.70;;;8.60;99.90;;;;;;5103306;27;20510;-79
2023/10/26 06:23:33;;;;;;;58.63;24.10;;;10.00;99.90;;;;;;5121206;27;20073;-81
2023/10/26 06:26:00;;;;;;;55.72;23.73;;;9.20;99.90;;;;;;5107939;27;20470;-81
2023/10/26 06:28:27;;;;;;;23.55;20.77;;;10.80;99.90;;;;;;5107268;27;20058;-77
2023/10/26 06:30:53;;;;;;;21.85;19.65;;;9.70;99.90;;;;;;5103772;27;20074;-82
2023/10/26 06:33:19;;;;;;;23.00;20.80;;;9.20;99.90;;;;;;5104194;27;20068;-79
2023/10/26 06:35:45;;;;;;;22.00;19.50;;;10.80;99.90;;;;;;5104542;27;20087;-82
2023/10/26 06:38:11;;;;;;;22.95;20.55;;;9.80;99.90;;;;;;5124610;27;20053;-77
2023/10/26 06:40:37;;;;;;;23.80;20.35;;;8.70;99.90;;;;;;5105962;27;20046;-80
2023/10/26 06:43:04;;;;;;;26.40;22.63;;;10.90;99.90;;;;;;5103011;27;20070;-81
2023/10/26 06:45:29;;;;;;;24.10;21.70;;;10.50;99.90;;;;;;5103852;27;20115;-77
2023/10/26 06:47:55;;;;;;;66.80;23.63;;;10.30;99.90;;;;;;5123470;27;20063;-78
2023/10/26 06:50:22;;;;;;;23.95;21.55;;;10.50;99.90;;;;;;5106500;27;20041;-77
2023/10/26 06:52:48;;;;;;;24.00;21.58;;;10.70;99.90;;;;;;5104360;27;20047;-78
2023/10/26 06:55:16;;;;;;;23.65;20.40;;;10.20;99.90;;;;;;5103717;27;20031;-80
2023/10/26 06:57:45;;;;;;;25.85;23.02;;;8.90;99.90;;;;;;5104046;27;20100;-77
2023/10/26 07:00:11;;;;;;;24.10;21.63;;;8.70;99.90;;;;;;5107005;27;20038;-78
2023/10/26 07:02:37;;;;;;;25.27;22.67;;;8.80;99.90;;;;;;5106218;27;20039;-78
2023/10/26 07:05:03;;;;;;;25.08;22.48;;;10.20;99.90;;;;;;5101908;27;20046;-77
2023/10/26 07:07:31;;;;;;;24.13;21.70;;;8.80;99.90;;;;;;5103032;27;20039;-77
2023/10/26 07:09:57;;;;;;;32.38;21.98;;;10.10;99.90;;;;;;5105568;27;20031;-77
2023/10/26 07:12:24;;;;;;;26.33;22.17;;;9.70;99.90;;;;;;5106651;27;20078;-77
2023/10/26 07:14:53;;;;;;;28.08;21.42;;;8.90;99.90;;;;;;5103328;27;20478;-77
2023/10/26 07:17:21;;;;;;;29.40;23.50;;;8.80;99.90;;;;;;5102486;27;20043;-79
2023/10/26 07:19:46;;;;;;;37.47;22.02;;;10.60;99.90;;;;;;5121106;27;20521;-76
2023/10/26 07:22:13;;;;;;;42.65;22.73;;;8.90;99.90;;;;;;5106478;27;20035;-78
2023/10/26 07:24:39;;;;;;;39.80;22.83;;;9.90;99.90;;;;;;5105080;27;20046;-77
2023/10/26 07:27:04;;;;;;;41.10;22.23;;;9.00;99.90;;;;;;5102699;27;20375;-81
2023/10/26 07:29:30;;;;;;;28.02;24.30;;;7.20;99.90;;;;;;5102864;27;20069;-78
2023/10/26 07:31:56;;;;;;;43.05;23.65;;;8.80;99.90;;;;;;5105481;27;20073;-78
2023/10/26 07:34:21;;;;;;;44.47;24.50;;;10.80;99.90;;;;;;5106313;27;20042;-78
2023/10/26 07:36:48;;;;;;;40.03;24.52;;;8.90;99.90;;;;;;5103622;27;20039;-82
2023/10/26 07:39:14;;;;;;;61.72;26.13;;;9.10;99.90;;;;;;5102462;27;20074;-78
2023/10/26 07:41:40;;;;;;;44.50;26.50;;;10.80;99.90;;;;;;5105055;27;20494;-78
2023/10/26 07:44:07;;;;;;;42.42;27.40;;;11.00;99.90;;;;;;5106256;27;20133;-78
2023/10/26 07:46:32;;;;;;;36.67;25.98;;;10.90;99.90;;;;;;5105314;27;20135;-80
2023/10/26 07:48:58;;;;;;;42.90;25.35;;;10.80;99.90;;;;;;5102234;27;20051;-79
2023/10/26 07:51:23;;;;;;;38.25;26.00;;;9.40;99.90;;;;;;5102652;27;20039;-78
2023/10/26 07:53:49;;;;;;;32.40;26.63;;;10.90;99.90;;;;;;5103298;27;20043;-78
2023/10/26 07:56:15;;;;;;;46.05;29.00;;;9.00;99.90;;;;;;5106246;27;20046;-77
2023/10/26 07:58:40;;;;;;;43.53;29.42;;;11.20;99.90;;;;;;5104798;27;20042;-79
2023/10/26 08:01:09;;;;;;;39.40;28.40;;;10.90;99.90;;;;;;5101569;27;20092;-79
2023/10/26 08:03:34;;;;;;;51.50;30.58;;;9.10;99.90;;;;;;5101937;27;20499;-81
2023/10/26 08:06:00;;;;;;;47.78;31.15;;;11.00;99.90;;;;;;5105248;27;20039;-80
2023/10/26 08:08:27;;;;;;;53.53;32.13;;;8.90;99.90;;;;;;5106115;27;20535;-77
2023/10/26 08:10:52;;;;;;;47.65;29.75;;;9.80;99.90;;;;;;5102329;27;20409;-78
2023/10/26 08:13:18;;;;;;;58.50;32.70;;;10.00;99.90;;;;;;5118313;27;20039;-80
2023/10/26 08:15:44;;;;;;;39.10;28.80;;;10.90;99.90;;;;;;5103174;27;20137;-79
2023/10/26 08:18:11;;;;;;;51.85;32.75;;;11.00;99.90;;;;;;5104672;27;20146;-77
2023/10/26 08:20:38;;;;;;;57.03;30.70;;;9.10;99.90;;;;;;5121261;27;20505;-78
2023/10/26 08:23:04;;;;;;;43.60;29.55;;;10.80;99.90;;;;;;5102018;28;20031;-78
2023/10/26 08:25:33;;;;;;;44.53;28.67;;;10.30;99.90;;;;;;5101762;28;20092;-80
2023/10/26 08:27:59;;;;;;;40.35;27.58;;;11.00;99.90;;;;;;5104657;27;20421;-79
2023/10/26 08:30:25;;;;;;;45.35;28.65;;;10.90;99.90;;;;;;5105654;27;20026;-78
2023/10/26 08:32:53;;;;;;;43.05;29.45;;;11.20;99.90;;;;;;5102711;27;20134;-80
2023/10/26 08:35:19;;;;;;;62.92;32.22;;;9.70;99.90;;;;;;5101223;28;20513;-78
2023/10/26 08:37:45;;;;;;;48.08;30.63;;;11.40;99.90;;;;;;5102967;27;20043;-79
2023/10/26 08:40:12;;;;;;;87.47;35.45;;;9.90;99.90;;;;;;5105210;27;20050;-77
2023/10/26 08:42:40;;;;;;;52.03;31.73;;;9.40;99.90;;;;;;5104248;27;20110;-77
2023/10/26 08:45:14;;;;;;;52.13;36.75;;;10.80;99.90;;;;;;5101566;28;20039;-78
2023/10/26 08:47:41;;;;;;;44.17;30.60;;;9.40;99.90;;;;;;5119216;27;20470;-79
2023/10/26 08:50:09;;;;;;;41.25;28.05;;;10.40;99.90;;;;;;5121259;27;20370;-78
2023/10/26 08:52:36;;;;;;;46.33;26.63;;;9.40;99.90;;;;;;5122386;27;20073;-78
2023/10/26 08:55:02;;;;;;;40.88;26.80;;;11.00;99.90;;;;;;5109856;28;20502;-78
2023/10/26 08:57:28;;;;;;;53.05;30.25;;;9.40;99.90;;;;;;5101838;28;20134;-77
2023/10/26 08:59:53;;;;;;;41.13;25.60;;;9.30;99.90;;;;;;5103584;27;20414;-77
2023/10/26 09:02:19;;;;;;;38.33;25.08;;;11.40;99.90;;;;;;5122081;27;20070;-79
2023/10/26 09:05:04;;;;;;;63.47;32.10;;;11.10;99.90;;;;;;5103806;27;20478;-79
2023/10/26 09:07:30;;;;;;;39.65;25.98;;;9.30;99.90;;;;;;5101684;28;20050;-78
2023/10/26 09:09:56;;;;;;;40.60;27.17;;;9.30;99.90;;;;;;5103026;27;20089;-78
2023/10/26 09:12:22;;;;;;;50.70;29.35;;;10.80;99.90;;;;;;5105341;27;20081;-79
2023/10/26 09:15:01;;;;;;;39.08;26.02;;;11.60;99.90;;;;;;5120180;27;20058;-78
2023/10/26 09:17:28;;;;;;;47.05;27.67;;;11.40;99.90;;;;;;5118989;28;20376;-80
2023/10/26 09:19:54;;;;;;;45.22;28.67;;;11.20;99.90;;;;;;5103628;27;20164;-77
2023/10/26 09:22:35;;;;;;;43.42;26.90;;;9.40;99.90;;;;;;5105618;27;20042;-77
2023/10/26 09:25:09;;;;;;;33.78;24.77;;;9.30;99.90;;;;;;5100564;27;20379;-80
2023/10/26 09:27:35;;;;;;;37.63;25.27;;;9.40;99.90;;;;;;5101454;28;20065;-78
2023/10/26 09:30:02;;;;;;;34.90;23.80;;;10.70;99.90;;;;;;5107883;27;20493;-78
2023/10/26 09:32:34;;;;;;;39.78;26.23;;;9.40;99.90;;;;;;5108166;27;20030;-77
2023/10/26 09:35:01;;;;;;;45.38;25.77;;;9.40;99.90;;;;;;5105251;27;20387;-78
2023/10/26 09:37:26;;;;;;;46.97;26.98;;;11.10;99.90;;;;;;5104928;27;20047;-77
2023/10/26 09:39:53;;;;;;;36.58;24.08;;;11.30;99.90;;;;;;5106189;27;20513;-79
2023/10/26 09:42:19;;;;;;;31.85;23.08;;;11.60;99.90;;;;;;5108760;27;20069;-78
2023/10/26 09:44:46;;;;;;;38.20;25.40;;;11.10;99.90;;;;;;5106322;27;20131;-77
2023/10/26 09:47:13;;;;;;;35.83;23.63;;;9.40;99.90;;;;;;5105209;27;20035;-79
2023/10/26 09:49:38;;;;;;;38.72;26.23;;;11.30;99.90;;;;;;5104551;27;20097;-80
2023/10/26 09:52:04;;;;;;;32.95;24.63;;;9.80;99.90;;;;;;5124691;27;20463;-79
2023/10/26 09:54:36;;;;;;;39.30;24.00;;;9.40;99.90;;;;;;5108377;27;20137;-78
2023/10/26 09:57:09;;;;;;;34.20;22.80;;;10.40;99.90;;;;;;5105310;27;20129;-78
2023/10/26 09:59:36;;;;;;;38.33;23.67;;;9.50;99.90;;;;;;5103656;27;20047;-78
2023/10/26 10:02:16;;;;;;;31.23;22.55;;;9.50;99.90;;;;;;5107838;27;20386;-78
2023/10/26 10:04:42;;;;;;;38.28;22.10;;;10.90;99.90;;;;;;5107015;27;20133;-78
2023/10/26 10:07:07;;;;;;;28.80;22.60;;;9.40;99.90;;;;;;5103458;27;20027;-78
2023/10/26 10:10:03;;;;;;;28.83;21.33;;;9.50;99.90;;;;;;5120722;27;20077;-78
2023/10/26 10:12:29;;;;;;;31.50;21.80;;;9.50;99.90;;;;;;5104363;27;20085;-77
2023/10/26 10:14:57;;;;;;;32.55;22.98;;;9.70;99.90;;;;;;5105296;27;20074;-77
2023/10/26 10:17:42;;;;;;;31.23;22.80;;;11.40;99.90;;;;;;5107989;27;20042;-77
2023/10/26 10:20:17;;;;;;;30.83;20.42;;;11.10;99.90;;;;;;5103182;27;20046;-77
2023/10/26 10:22:58;;;;;;;;;;;11.70;99.90;;;;;;5104531;27;20050;-79
2023/10/26 10:25:49;;;;;;;25.05;20.25;;;9.50;99.90;;;;;;5108025;27;20349;-78
2023/10/26 10:28:18;;;;;;;26.77;21.48;;;9.60;99.90;;;;;;5094831;27;20099;-77
2023/10/26 10:30:50;;;;;;;30.95;22.30;;;9.60;99.90;;;;;;5104192;27;20050;-80
2023/10/26 10:33:29;;;;;;;24.33;20.35;;;10.20;99.90;;;;;;5107169;27;20167;-77
2023/10/26 10:36:02;;;;;;;32.35;20.75;;;11.00;99.90;;;;;;5121312;27;20050;-78
2023/10/26 10:38:32;;;;;;;31.70;21.67;;;9.60;99.90;;;;;;5104527;27;20095;-77
2023/10/26 10:41:01;;;;;;;26.98;19.55;;;9.40;99.90;;;;;;5104241;27;20387;-78
2023/10/26 10:43:40;;;;;;;28.73;21.05;;;9.60;99.90;;;;;;5111255;27;20119;-79
2023/10/26 10:46:26;;;;;;;35.72;21.58;;;10.40;99.90;;;;;;5127827;27;20039;-80
2023/10/26 10:49:07;;;;;;;27.85;20.90;;;9.70;99.90;;;;;;5114190;27;20042;-81
2023/10/26 10:51:35;;;;;;;31.48;22.95;;;9.70;99.90;;;;;;5108320;27;20133;-79
2023/10/26 10:54:04;;;;;;;29.25;21.77;;;11.20;99.90;;;;;;5129620;27;20124;-79
2023/10/26 10:56:37;;;;;;;70.57;49.28;;;9.70;99.90;;;;;;5109244;27;20082;-79
2023/10/26 10:59:21;;;;;;;39.83;28.45;;;9.70;99.90;;;;;;5115071;27;20041;-79
2023/10/26 11:01:48;;;;;;;;;;;9.70;99.90;;;;;;5123158;27;20490;-79
2023/10/26 11:04:14;;;;;;;34.95;24.20;;;9.70;99.90;;;;;;5111670;27;19964;-82
2023/10/26 11:06:49;;;;;;;33.83;23.70;;;11.40;99.90;;;;;;5108792;27;20043;-82
2023/10/26 11:09:41;;;;;;;32.35;22.95;;;9.80;99.90;;;;;;5120277;27;20042;-82
2023/10/26 11:12:11;;;;;;;30.33;23.10;;;9.80;99.90;;;;;;5103424;27;20057;-82
2023/10/26 11:14:49;;;;;;;32.85;23.67;;;9.90;99.90;;;;;;5088768;27;20078;-81
2023/10/26 11:17:18;;;;;;;35.50;23.50;;;11.00;99.90;;;;;;5106164;27;20092;-81
2023/10/26 11:19:43;;;;;;;35.50;24.58;;;9.90;99.90;;;;;;5122614;27;20043;-81
2023/10/26 11:22:09;;;;;;;34.35;24.13;;;10.00;99.90;;;;;;5123546;27;20146;-81
2023/10/26 11:24:35;;;;;;;32.72;23.27;;;10.90;99.90;;;;;;5106015;27;20042;-82
2023/10/26 11:27:10;;;;;;;33.65;24.90;;;10.00;99.90;;;;;;5104072;27;20764;-82
2023/10/26 11:29:37;;;;;;;33.47;23.55;;;10.10;99.90;;;;;;5102801;27;20125;-81
2023/10/26 11:32:03;;;;;;;32.42;23.67;;;10.90;99.90;;;;;;5123126;27;20043;-82
2023/10/26 11:34:29;;;;;;;34.03;23.02;;;10.10;99.90;;;;;;5123646;27;20049;-82
2023/10/26 11:36:57;;;;;;;35.47;24.60;;;10.10;99.90;;;;;;5104640;27;20035;-82
2023/10/26 11:39:27;;;;;;;52.08;37.55;;;10.10;99.90;;;;;;5118425;27;20129;-81
2023/10/26 11:41:56;;;;;;;38.22;28.00;;;10.10;99.90;;;;;;5121442;27;20046;-82
2023/10/26 11:44:24;;;;;;;36.95;25.73;;;12.00;99.90;;;;;;5101810;27;20047;-81
2023/10/26 11:46:57;;;;;;;39.67;25.77;;;10.10;99.90;;;;;;5103156;27;20043;-81
2023/10/26 11:49:36;;;;;;;34.53;25.05;;;11.30;99.90;;;;;;5106045;27;20103;-82
2023/10/26 11:52:02;;;;;;;37.15;26.70;;;10.20;99.90;;;;;;5105286;27;20397;-79
2023/10/26 11:54:31;;;;;;;38.33;27.15;;;10.10;99.90;;;;;;5124281;27;20134;-84
2023/10/26 11:56:57;;;;;;;40.45;26.23;;;11.20;99.90;;;;;;5113702;27;20043;-86
2023/10/26 11:59:22;;;;;;;37.88;28.95;;;11.10;99.90;;;;;;5116311;27;20112;-84
2023/10/26 12:01:48;;;;;;;39.97;27.42;;;10.10;99.90;;;;;;5129869;27;20393;-83
2023/10/26 12:04:13;;;;;;;43.28;28.75;;;11.30;99.90;;;;;;5104600;27;20031;-84
2023/10/26 12:06:48;;;;;;;40.20;28.20;;;10.10;99.90;;;;;;5112188;27;20039;-84
2023/10/26 12:09:14;;;;;;;41.55;29.00;;;10.20;99.90;;;;;;5118304;27;20130;-84
2023/10/26 12:11:41;;;;;;;46.60;31.30;;;10.10;99.90;;;;;;5109629;27;20141;-84
2023/10/26 12:14:07;;;;;;;43.63;29.40;;;11.80;99.90;;;;;;5112145;27;20038;-82
2023/10/26 12:16:33;;;;;;;40.38;28.33;;;11.70;99.90;;;;;;5092596;28;20122;-84
2023/10/26 12:18:58;;;;;;;39.05;28.77;;;10.20;99.90;;;;;;5121200;27;20057;-86
2023/10/26 12:21:24;;;;;;;40.35;28.77;;;10.10;99.90;;;;;;5111266;27;20042;-84
2023/10/26 12:23:49;;;;;;;42.50;31.42;;;11.10;99.90;;;;;;5138160;27;20421;-82
2023/10/26 12:26:15;;;;;;;40.33;28.77;;;11.60;99.90;;;;;;5101667;27;20538;-83
2023/10/26 12:28:46;;;;;;;39.08;27.88;;;10.20;99.90;;;;;;5130026;27;20039;-84
2023/10/26 12:31:11;;;;;;;39.45;28.48;;;10.70;99.90;;;;;;5129751;27;20053;-85
2023/10/26 12:33:37;;;;;;;37.05;29.05;;;10.80;99.90;;;;;;5110084;27;20034;-83